Time;durP1;ratioP1;P1;durP2;ratioP2;P2;SDS_P1;SDS_P2;PMS_P1;PMS_P2;Temp;Humidity;BMP_temperature;BMP_pressure;BME280_temperature;BME280_humidity;BME280_pressure;Samples;Min_cycle;Max_cycle;Signal;HPM_P1;HPM_P2
2021/11/27 00:00:04;;;;;;;;;;;20.70;61.20;;;;;;4996942;28;1335;-68
2021/11/27 00:02:30;;;;;;;;;;;20.70;61.30;;;;;;5014356;28;1267;-68
2021/11/27 00:04:55;;;;;;;;;;;20.70;61.30;;;;;;5013947;28;1341;-69
2021/11/27 00:07:21;;;;;;;;;;;20.70;61.30;;;;;;5014813;28;1902;-69
2021/11/27 00:09:46;;;;;;;;;;;20.70;61.40;;;;;;5014706;28;1376;-69
2021/11/27 00:12:12;;;;;;;;;;;20.70;61.30;;;;;;5013716;28;1253;-69
2021/11/27 00:14:37;;;;;;;;;;;20.70;61.40;;;;;;5013882;28;1315;-69
2021/11/27 00:17:03;;;;;;;;;;;20.70;61.40;;;;;;5014778;28;1248;-69
2021/11/27 00:19:28;;;;;;;;;;;20.70;61.40;;;;;;5014131;28;1324;-69
2021/11/27 00:21:54;;;;;;;;;;;20.70;61.40;;;;;;5020769;28;1370;-69
2021/11/27 00:24:19;;;;;;;;;;;20.70;61.50;;;;;;4994747;28;1303;-68
2021/11/27 00:26:45;;;;;;;;;;;20.60;61.40;;;;;;4996854;28;1898;-69
2021/11/27 00:29:10;;;;;;;;;;;20.70;61.50;;;;;;4994610;28;1313;-69
2021/11/27 00:31:39;;;;;;;;;;;20.60;61.40;;;;;;4993844;28;1295;-69
2021/11/27 00:34:04;;;;;;;;;;;20.70;61.50;;;;;;4995017;28;1092;-69
2021/11/27 00:36:29;;;;;;;;;;;20.70;61.60;;;;;;4977898;28;1314;-69
2021/11/27 00:38:55;;;;;;;;;;;20.70;61.60;;;;;;4996907;28;1304;-69
2021/11/27 00:41:21;;;;;;;;;;;20.70;61.60;;;;;;5010383;28;1334;-68
2021/11/27 00:43:46;;;;;;;;;;;20.70;61.60;;;;;;4994634;28;1229;-68
2021/11/27 00:46:12;;;;;;;;;;;20.60;61.60;;;;;;4993182;28;1903;-68
2021/11/27 00:48:37;;;;;;;;;;;20.60;61.60;;;;;;4995157;28;1317;-67
2021/11/27 00:51:04;;;;;;;;;;;20.60;61.60;;;;;;5007832;28;1291;-69
2021/11/27 00:53:30;;;;;;;;;;;20.60;61.60;;;;;;4998984;28;1190;-69
2021/11/27 00:55:55;;;;;;;;;;;20.60;61.70;;;;;;5006806;28;1323;-70
2021/11/27 00:58:21;;;;;;;;;;;20.60;61.60;;;;;;4994832;28;1520;-69
2021/11/27 01:00:51;;;;;;;;;;;20.60;61.70;;;;;;4993171;28;1296;-69
2021/11/27 01:03:17;;;;;;;;;;;20.60;61.70;;;;;;4993735;28;1414;-69
2021/11/27 01:05:42;;;;;;;;;;;20.60;61.70;;;;;;4976369;28;1956;-69
2021/11/27 01:08:08;;;;;;;;;;;20.60;61.70;;;;;;4976851;28;1074;-68
2021/11/27 01:10:35;;;;;;;;;;;20.60;61.70;;;;;;4993389;28;1300;-69
2021/11/27 01:13:01;;;;;;;;;;;20.60;61.70;;;;;;5008766;28;1190;-69
2021/11/27 01:15:27;;;;;;;;;;;20.60;61.80;;;;;;4998108;28;1292;-69
2021/11/27 01:17:53;;;;;;;;;;;20.60;61.70;;;;;;5008110;28;1711;-69
2021/11/27 01:20:19;;;;;;;;;;;20.60;62.50;;;;;;4985628;28;1685;-69
2021/11/27 01:22:45;;;;;;;;;;;20.60;61.80;;;;;;5008111;28;1311;-69
2021/11/27 01:25:10;;;;;;;;;;;20.60;61.80;;;;;;4993861;28;1186;-69
2021/11/27 01:27:36;;;;;;;;;;;20.60;61.80;;;;;;4993942;28;1898;-69
2021/11/27 01:30:02;;;;;;;;;;;20.50;61.80;;;;;;4993225;28;1349;-70
2021/11/27 01:32:28;;;;;;;;;;;20.50;61.80;;;;;;4992946;28;1295;-69
2021/11/27 01:34:53;;;;;;;;;;;20.50;62.50;;;;;;4993000;28;1301;-69
2021/11/27 01:37:19;;;;;;;;;;;20.50;61.80;;;;;;4993288;28;1273;-69
2021/11/27 01:39:44;;;;;;;;;;;20.50;61.80;;;;;;4993723;28;1304;-69
2021/11/27 01:42:10;;;;;;;;;;;20.50;61.80;;;;;;5004913;28;1266;-69
2021/11/27 01:44:36;;;;;;;;;;;20.50;61.80;;;;;;4994813;28;1270;-69
2021/11/27 01:47:02;;;;;;;;;;;20.50;61.90;;;;;;5013198;28;1910;-69
2021/11/27 01:49:27;;;;;;;;;;;20.50;61.90;;;;;;5013206;28;1328;-69
2021/11/27 01:51:53;;;;;;;;;;;20.50;61.90;;;;;;5012183;28;1367;-69
2021/11/27 01:54:18;;;;;;;;;;;20.50;61.90;;;;;;5012727;28;1291;-69
2021/11/27 01:56:45;;;;;;;;;;;20.50;61.90;;;;;;4995430;28;1353;-69
2021/11/27 01:59:11;;;;;;;;;;;20.50;61.90;;;;;;5012075;28;1342;-68
2021/11/27 02:01:36;;;;;;;;;;;20.50;61.90;;;;;;5012620;28;1341;-69
2021/11/27 02:04:02;;;;;;;;;;;20.50;61.90;;;;;;5013167;28;1183;-69
2021/11/27 02:06:30;;;;;;;;;;;20.50;62.00;;;;;;4995362;28;1906;-70
2021/11/27 02:08:56;;;;;;;;;;;20.50;62.00;;;;;;4994756;28;1283;-69
2021/11/27 02:11:29;;;;;;;;;;;20.50;62.00;;;;;;5011738;28;1297;-69
2021/11/27 02:13:54;;;;;;;;;;;20.50;62.00;;;;;;5011593;28;1314;-69
2021/11/27 02:16:20;;;;;;;;;;;20.50;62.00;;;;;;4995280;28;1243;-69
2021/11/27 02:18:45;;;;;;;;;;;20.50;62.00;;;;;;5012500;28;1158;-69
2021/11/27 02:21:12;;;;;;;;;;;20.40;62.00;;;;;;5022532;28;1316;-69
2021/11/27 02:23:38;;;;;;;;;;;20.40;62.00;;;;;;4992639;28;1458;-69
2021/11/27 02:26:05;;;;;;;;;;;20.40;62.00;;;;;;4992329;28;1898;-69
2021/11/27 02:28:31;;;;;;;;;;;20.50;62.00;;;;;;5005333;28;1264;-69
2021/11/27 02:30:56;;;;;;;;;;;20.50;62.00;;;;;;4991891;28;1358;-69
2021/11/27 02:33:22;;;;;;;;;;;20.40;62.00;;;;;;4980376;28;1308;-69
2021/11/27 02:35:47;;;;;;;;;;;20.50;62.00;;;;;;4998636;28;1315;-69
2021/11/27 02:38:13;;;;;;;;;;;20.50;62.00;;;;;;4974826;28;1333;-69
2021/11/27 02:40:38;;;;;;;;;;;20.50;62.00;;;;;;4991844;28;1334;-69
2021/11/27 02:43:04;;;;;;;;;;;20.50;62.00;;;;;;5009634;28;1275;-69
2021/11/27 02:45:29;;;;;;;;;;;20.40;62.00;;;;;;5014353;28;1906;-69
2021/11/27 02:47:54;;;;;;;;;;;20.50;62.00;;;;;;5016726;28;1395;-69
2021/11/27 02:50:20;;;;;;;;;;;20.40;62.00;;;;;;5016101;28;1307;-67
2021/11/27 02:52:45;;;;;;;;;;;20.50;62.00;;;;;;5015456;28;1312;-69
2021/11/27 02:55:11;;;;;;;;;;;20.40;62.00;;;;;;4998544;28;1340;-69
2021/11/27 02:57:37;;;;;;;;;;;20.40;62.00;;;;;;5015885;28;1347;-69
2021/11/27 03:00:04;;;;;;;;;;;20.40;62.00;;;;;;4998433;28;1303;-69
2021/11/27 03:02:29;;;;;;;;;;;20.40;62.00;;;;;;4997779;28;1328;-69
2021/11/27 03:04:55;;;;;;;;;;;20.40;62.00;;;;;;5016108;28;1277;-69
2021/11/27 03:07:20;;;;;;;;;;;20.40;62.00;;;;;;5003009;28;1910;-70
2021/11/27 03:09:46;;;;;;;;;;;20.40;62.00;;;;;;5016151;28;1257;-69
2021/11/27 03:12:11;;;;;;;;;;;20.40;62.00;;;;;;5009085;28;1261;-70
2021/11/27 03:14:37;;;;;;;;;;;20.40;62.00;;;;;;5003223;28;1289;-67
2021/11/27 03:17:03;;;;;;;;;;;20.40;62.00;;;;;;4999776;28;1455;-69
2021/11/27 03:19:29;;;;;;;;;;;20.40;62.10;;;;;;4997197;28;1230;-70
2021/11/27 03:21:54;;;;;;;;;;;20.40;62.00;;;;;;5026432;28;1394;-70
2021/11/27 03:24:20;;;;;;;;;;;20.40;62.10;;;;;;4995279;28;1065;-69
2021/11/27 03:26:46;;;;;;;;;;;20.40;62.10;;;;;;5010181;28;1902;-69
2021/11/27 03:29:11;;;;;;;;;;;20.40;62.10;;;;;;5001467;28;1330;-69
2021/11/27 03:31:36;;;;;;;;;;;20.40;62.10;;;;;;4995912;28;1364;-69
2021/11/27 03:34:02;;;;;;;;;;;20.40;62.10;;;;;;5004977;28;1304;-68
2021/11/27 03:36:28;;;;;;;;;;;20.40;62.10;;;;;;5010592;28;1205;-69
2021/11/27 03:38:53;;;;;;;;;;;20.40;62.10;;;;;;5011781;28;1193;-69
2021/11/27 03:41:19;;;;;;;;;;;20.40;62.10;;;;;;5012283;28;1347;-69
2021/11/27 03:43:44;;;;;;;;;;;20.40;62.10;;;;;;5003880;28;1256;-68
2021/11/27 03:46:10;;;;;;;;;;;20.40;62.10;;;;;;4978457;28;1954;-69
2021/11/27 03:48:37;;;;;;;;;;;20.40;62.10;;;;;;4995963;28;1326;-68
2021/11/27 03:51:03;;;;;;;;;;;20.40;62.20;;;;;;4993221;28;2297;-69
2021/11/27 03:53:30;;;;;;;;;;;20.40;62.20;;;;;;5008757;28;1771;-69
2021/11/27 03:55:55;;;;;;;;;;;20.40;62.20;;;;;;4990769;28;1922;-69
2021/11/27 03:58:21;;;;;;;;;;;20.40;62.20;;;;;;4991945;28;1108;-70
2021/11/27 04:00:47;;;;;;;;;;;20.40;62.20;;;;;;5007850;28;1393;-69
2021/11/27 04:03:13;;;;;;;;;;;20.40;62.20;;;;;;4994388;28;1244;-70
2021/11/27 04:05:43;;;;;;;;;;;20.40;62.20;;;;;;4976818;28;1898;-70
2021/11/27 04:08:08;;;;;;;;;;;20.40;62.20;;;;;;4988599;28;1328;-68
2021/11/27 04:10:33;;;;;;;;;;;20.40;62.20;;;;;;4994786;28;1343;-67
2021/11/27 04:13:00;;;;;;;;;;;20.40;62.20;;;;;;4993818;28;1255;-68
2021/11/27 04:15:25;;;;;;;;;;;20.40;62.20;;;;;;4994217;28;1334;-67
2021/11/27 04:17:51;;;;;;;;;;;20.40;62.20;;;;;;4976717;28;1260;-69
2021/11/27 04:20:16;;;;;;;;;;;20.40;62.30;;;;;;5001584;28;1356;-70
2021/11/27 04:22:42;;;;;;;;;;;20.30;62.20;;;;;;5012162;28;1302;-69
2021/11/27 04:25:08;;;;;;;;;;;20.30;62.20;;;;;;4994132;28;1072;-68
2021/11/27 04:27:33;;;;;;;;;;;20.30;62.20;;;;;;4995756;28;1965;-69
2021/11/27 04:29:59;;;;;;;;;;;20.30;62.20;;;;;;4981122;28;1351;-69
2021/11/27 04:32:24;;;;;;;;;;;20.30;62.20;;;;;;5001431;28;1262;-70
2021/11/27 04:34:49;;;;;;;;;;;20.30;62.30;;;;;;4993624;28;1308;-69
2021/11/27 04:37:15;;;;;;;;;;;20.30;62.20;;;;;;4993858;28;1248;-71
2021/11/27 04:39:41;;;;;;;;;;;20.30;62.30;;;;;;4993484;28;1327;-70
2021/11/27 04:42:06;;;;;;;;;;;20.30;62.30;;;;;;4988589;28;1298;-66
2021/11/27 04:44:32;;;;;;;;;;;20.30;62.30;;;;;;4996384;28;1348;-68
2021/11/27 04:46:57;;;;;;;;;;;20.30;62.30;;;;;;5013798;28;1902;-68
2021/11/27 04:49:23;;;;;;;;;;;20.30;62.30;;;;;;5013791;28;1231;-68
2021/11/27 04:51:48;;;;;;;;;;;20.30;62.30;;;;;;4995229;28;1292;-65
2021/11/27 04:54:14;;;;;;;;;;;20.30;62.30;;;;;;5013218;28;1283;-67
2021/11/27 04:56:39;;;;;;;;;;;20.30;62.30;;;;;;5013579;28;1246;-68
2021/11/27 04:59:04;;;;;;;;;;;20.30;62.30;;;;;;5013343;28;1347;-66
2021/11/27 05:01:30;;;;;;;;;;;20.30;62.40;;;;;;5012961;28;1415;-66
2021/11/27 05:03:56;;;;;;;;;;;20.30;62.40;;;;;;5013341;28;1312;-66
2021/11/27 05:06:22;;;;;;;;;;;20.30;62.40;;;;;;5013437;28;1898;-71
2021/11/27 05:08:48;;;;;;;;;;;20.30;62.40;;;;;;4995185;28;1340;-69
2021/11/27 05:11:13;;;;;;;;;;;20.30;62.40;;;;;;5012231;28;1306;-68
2021/11/27 05:13:39;;;;;;;;;;;20.30;62.40;;;;;;5013123;28;1371;-67
2021/11/27 05:16:05;;;;;;;;;;;20.30;62.30;;;;;;5013402;28;1272;-66
2021/11/27 05:18:31;;;;;;;;;;;20.30;62.30;;;;;;5012879;28;1289;-68
2021/11/27 05:20:56;;;;;;;;;;;20.40;62.20;;;;;;5020602;28;1300;-68
2021/11/27 05:23:21;;;;;;;;;;;20.40;62.10;;;;;;5000255;28;1087;-66
2021/11/27 05:25:47;;;;;;;;;;;20.40;62.00;;;;;;4993149;28;1961;-65
2021/11/27 05:28:12;;;;;;;;;;;20.40;62.70;;;;;;4996512;28;1199;-70
2021/11/27 05:30:38;;;;;;;;;;;20.50;61.80;;;;;;4993950;28;1340;-68
2021/11/27 05:35:29;;;;;;;;;;;20.50;61.60;;;;;;4993363;28;1318;-70
2021/11/27 05:37:54;;;;;;;;;;;20.50;61.50;;;;;;4976563;28;1320;-69
2021/11/27 05:40:20;;;;;;;;;;;20.50;61.40;;;;;;4975541;28;1289;-68
2021/11/27 05:42:45;;;;;;;;;;;20.60;61.40;;;;;;5009161;28;1331;-68
2021/11/27 05:45:11;;;;;;;;;;;20.60;61.30;;;;;;5013260;28;1296;-69
2021/11/27 05:47:36;;;;;;;;;;;20.60;61.20;;;;;;5013346;28;1989;-68
2021/11/27 05:50:03;;;;;;;;;;;20.60;61.20;;;;;;4995920;28;1356;-68
2021/11/27 05:52:28;;;;;;;;;;;20.60;61.10;;;;;;4995453;28;1376;-69
2021/11/27 05:54:54;;;;;;;;;;;20.60;61.00;;;;;;5013578;28;1277;-70
2021/11/27 05:57:19;;;;;;;;;;;20.70;61.00;;;;;;5012864;28;1268;-68
2021/11/27 05:59:46;;;;;;;;;;;20.60;61.70;;;;;;5013271;28;1313;-68
2021/11/27 06:02:12;;;;;;;;;;;20.60;61.00;;;;;;5012377;28;1414;-69
2021/11/27 06:04:37;;;;;;;;;;;20.60;60.90;;;;;;5012839;28;1277;-67
2021/11/27 06:07:02;;;;;;;;;;;20.60;60.90;;;;;;5012328;28;1914;-68
2021/11/27 06:09:28;;;;;;;;;;;20.60;60.90;;;;;;5012977;28;1092;-68
2021/11/27 06:11:53;;;;;;;;;;;20.60;60.90;;;;;;5012360;28;1397;-68
2021/11/27 06:14:19;;;;;;;;;;;20.70;61.70;;;;;;5012742;28;1182;-67
2021/11/27 06:16:44;;;;;;;;;;;20.70;60.90;;;;;;5012796;28;1147;-68
2021/11/27 06:19:10;;;;;;;;;;;20.70;60.80;;;;;;5012350;28;1292;-69
2021/11/27 06:21:35;;;;;;;;;;;20.70;60.80;;;;;;5020604;28;1493;-69
2021/11/27 06:24:01;;;;;;;;;;;20.70;60.80;;;;;;4993046;28;985;-70
2021/11/27 06:26:27;;;;;;;;;;;20.70;60.80;;;;;;4993740;28;1969;-69
2021/11/27 06:28:52;;;;;;;;;;;20.70;60.80;;;;;;4993126;28;1307;-68
2021/11/27 06:31:18;;;;;;;;;;;20.70;60.80;;;;;;4974818;28;1365;-68
2021/11/27 06:33:43;;;;;;;;;;;20.70;60.80;;;;;;4993026;28;1284;-68
2021/11/27 06:36:09;;;;;;;;;;;20.70;60.80;;;;;;4975411;28;1355;-69
2021/11/27 06:38:34;;;;;;;;;;;20.70;60.70;;;;;;4992950;28;1312;-67
2021/11/27 06:41:00;;;;;;;;;;;20.70;60.70;;;;;;4976581;28;1359;-71
2021/11/27 06:43:25;;;;;;;;;;;20.70;60.70;;;;;;4994699;28;1322;-68
2021/11/27 06:45:51;;;;;;;;;;;20.70;60.70;;;;;;5012470;28;1935;-68
2021/11/27 06:48:16;;;;;;;;;;;20.70;60.70;;;;;;5012548;28;1079;-68
2021/11/27 06:50:42;;;;;;;;;;;20.70;60.60;;;;;;4998965;28;1244;-68
2021/11/27 06:53:07;;;;;;;;;;;20.70;60.60;;;;;;5011105;28;1279;-70
2021/11/27 06:55:33;;;;;;;;;;;20.70;60.60;;;;;;5012424;28;1341;-68
2021/11/27 06:57:58;;;;;;;;;;;20.70;60.50;;;;;;4995031;28;1290;-68
2021/11/27 07:00:24;;;;;;;;;;;20.80;60.60;;;;;;5012068;28;1342;-68
2021/11/27 07:02:49;;;;;;;;;;;20.80;60.50;;;;;;5011315;28;1368;-67
2021/11/27 07:05:15;;;;;;;;;;;20.80;60.40;;;;;;5012155;28;1264;-69
2021/11/27 07:07:40;;;;;;;;;;;20.80;60.30;;;;;;5012404;28;1968;-70
2021/11/27 07:10:06;;;;;;;;;;;20.80;60.30;;;;;;4977244;28;1689;-69
2021/11/27 07:12:31;;;;;;;;;;;20.90;60.20;;;;;;4991450;28;1281;-67
2021/11/27 07:14:58;;;;;;;;;;;20.90;60.20;;;;;;4992443;28;1359;-71
2021/11/27 07:17:24;;;;;;;;;;;20.90;60.10;;;;;;4992572;28;1366;-69
2021/11/27 07:19:49;;;;;;;;;;;20.90;60.10;;;;;;4998897;28;1733;-69
2021/11/27 07:22:15;;;;;;;;;;;20.90;60.00;;;;;;5015424;28;1171;-68
2021/11/27 07:24:40;;;;;;;;;;;20.90;60.00;;;;;;4992668;28;1283;-67
2021/11/27 07:27:09;;;;;;;;;;;20.90;60.00;;;;;;4982705;28;1898;-67
2021/11/27 07:29:35;;;;;;;;;;;20.90;60.00;;;;;;5009758;28;1347;-67
2021/11/27 07:32:00;;;;;;;;;;;20.90;59.90;;;;;;4974177;28;1363;-67
2021/11/27 07:34:26;;;;;;;;;;;21.00;60.00;;;;;;4994635;28;1349;-67
2021/11/27 07:36:51;;;;;;;;;;;21.00;60.00;;;;;;4977225;28;1391;-68
2021/11/27 07:39:17;;;;;;;;;;;21.00;60.00;;;;;;4974434;28;1314;-68
2021/11/27 07:41:42;;;;;;;;;;;21.00;60.00;;;;;;5003301;28;1246;-67
2021/11/27 07:44:08;;;;;;;;;;;20.90;59.90;;;;;;5014084;28;1349;-68
2021/11/27 07:46:33;;;;;;;;;;;20.90;60.00;;;;;;5015062;28;1965;-67
2021/11/27 07:48:59;;;;;;;;;;;20.90;59.90;;;;;;5014510;28;1240;-67
2021/11/27 07:51:24;;;;;;;;;;;21.00;60.00;;;;;;5013030;28;1263;-67
2021/11/27 07:53:50;;;;;;;;;;;20.90;59.90;;;;;;5013365;28;1293;-68
2021/11/27 07:56:15;;;;;;;;;;;20.90;59.90;;;;;;4994841;28;1061;-68
2021/11/27 07:58:41;;;;;;;;;;;21.00;59.90;;;;;;4995473;28;1371;-68
2021/11/27 08:01:06;;;;;;;;;;;21.10;59.90;;;;;;4986530;28;2188;-69
2021/11/27 08:03:32;;;;;;;;;;;21.20;59.80;;;;;;5008224;28;1103;-70
2021/11/27 08:05:57;;;;;;;;;;;21.30;59.70;;;;;;5012519;28;1894;-69
2021/11/27 08:08:23;;;;;;;;;;;21.40;59.50;;;;;;5007581;28;1115;-68
2021/11/27 08:10:48;;;;;;;;;;;21.50;59.30;;;;;;5007572;28;1387;-69
2021/11/27 08:13:14;;;;;;;;;;;21.60;59.00;;;;;;5000700;28;1278;-68
2021/11/27 08:15:39;;;;;;;;;;;21.70;58.80;;;;;;4984974;28;1175;-68
2021/11/27 08:18:05;;;;;;;;;;;21.80;58.50;;;;;;4983974;28;1395;-68
2021/11/27 08:20:30;;;;;;;;;;;21.90;58.30;;;;;;5005381;28;1329;-69
2021/11/27 08:22:56;;;;;;;;;;;22.00;58.10;;;;;;5014850;28;1244;-66
2021/11/27 08:25:21;;;;;;;;;;;22.10;58.00;;;;;;5014050;28;1241;-67
2021/11/27 08:27:47;;;;;;;;;;;22.10;57.70;;;;;;4996382;28;1935;-70
2021/11/27 08:30:12;;;;;;;;;;;22.20;57.60;;;;;;5006737;28;1365;-69
2021/11/27 08:32:38;;;;;;;;;;;22.30;57.40;;;;;;4977045;28;1288;-68
2021/11/27 08:35:04;;;;;;;;;;;22.30;57.30;;;;;;4994925;28;1284;-69
2021/11/27 08:37:29;;;;;;;;;;;22.40;57.20;;;;;;4994936;28;1319;-69
2021/11/27 08:39:55;;;;;;;;;;;22.40;57.00;;;;;;4995022;28;1470;-68
2021/11/27 08:42:21;;;;;;;;;;;22.50;56.90;;;;;;4990021;28;1184;-68
2021/11/27 08:44:47;;;;;;;;;;;22.50;56.90;;;;;;5014754;28;1317;-69
2021/11/27 08:47:13;;;;;;;;;;;22.60;56.80;;;;;;5014334;28;1910;-69
2021/11/27 08:49:39;;;;;;;;;;;22.60;56.70;;;;;;5014318;28;1312;-69
2021/11/27 08:52:05;;;;;;;;;;;22.60;56.60;;;;;;5013500;28;1260;-69
2021/11/27 08:54:30;;;;;;;;;;;22.60;56.60;;;;;;5012815;28;1341;-68
2021/11/27 08:56:56;;;;;;;;;;;22.70;56.50;;;;;;4996571;28;1285;-70
2021/11/27 08:59:23;;;;;;;;;;;22.70;56.50;;;;;;5014520;28;1387;-69
2021/11/27 09:01:49;;;;;;;;;;;22.70;56.50;;;;;;5012813;28;1283;-69
2021/11/27 09:04:14;;;;;;;;;;;22.70;56.50;;;;;;5013987;28;1322;-70
2021/11/27 09:06:40;;;;;;;;;;;22.70;56.40;;;;;;5013664;28;1894;-68
2021/11/27 09:09:05;;;;;;;;;;;22.70;56.40;;;;;;5014321;28;1346;-68
2021/11/27 09:11:31;;;;;;;;;;;22.80;56.50;;;;;;5012969;28;1360;-69
2021/11/27 09:13:56;;;;;;;;;;;22.80;56.50;;;;;;5013867;28;1410;-69
2021/11/27 09:16:22;;;;;;;;;;;22.80;56.50;;;;;;5013483;28;1335;-68
2021/11/27 09:18:47;;;;;;;;;;;22.80;56.60;;;;;;5013594;28;1383;-69
2021/11/27 09:21:13;;;;;;;;;;;22.80;56.60;;;;;;5023854;28;1499;-69
2021/11/27 09:23:38;;;;;;;;;;;22.80;56.70;;;;;;4977643;28;1316;-69
2021/11/27 09:26:04;;;;;;;;;;;22.80;56.70;;;;;;5006562;28;1894;-68
2021/11/27 09:28:29;;;;;;;;;;;22.80;56.70;;;;;;4994291;28;1223;-70
2021/11/27 09:30:55;;;;;;;;;;;22.80;56.80;;;;;;4993733;28;1299;-70
2021/11/27 09:33:20;;;;;;;;;;;22.80;56.80;;;;;;4995454;28;1369;-69
2021/11/27 09:36:03;;;;;;;;;;;22.80;56.80;;;;;;5001091;28;1096;-69
2021/11/27 09:38:29;;;;;;;;;;;22.70;56.80;;;;;;5001225;28;1267;-70
2021/11/27 09:41:07;;;;;;;;;;;22.70;56.70;;;;;;5012684;28;1334;-69
2021/11/27 09:43:32;;;;;;;;;;;22.70;56.70;;;;;;4995797;28;1319;-70
2021/11/27 09:45:58;;;;;;;;;;;22.70;56.70;;;;;;4995500;28;1906;-69
2021/11/27 09:48:23;;;;;;;;;;;22.70;56.80;;;;;;5013035;28;1303;-70
2021/11/27 09:50:49;;;;;;;;;;;22.70;56.70;;;;;;4995369;28;1403;-69
2021/11/27 09:53:14;;;;;;;;;;;22.70;56.70;;;;;;5012717;28;1305;-70
2021/11/27 09:55:40;;;;;;;;;;;22.70;56.70;;;;;;5012476;28;1289;-70
2021/11/27 09:58:05;;;;;;;;;;;22.80;56.70;;;;;;4995891;28;1294;-70
2021/11/27 10:00:31;;;;;;;;;;;22.70;56.80;;;;;;5012650;28;1369;-69
2021/11/27 10:02:56;;;;;;;;;;;22.70;56.70;;;;;;5012586;28;1316;-69
2021/11/27 10:05:22;;;;;;;;;;;22.70;56.80;;;;;;5013529;28;1249;-69
2021/11/27 10:07:47;;;;;;;;;;;22.60;56.80;;;;;;4995282;28;1947;-69
2021/11/27 10:10:14;;;;;;;;;;;22.70;56.90;;;;;;5012956;28;1324;-69
2021/11/27 10:12:40;;;;;;;;;;;22.60;56.90;;;;;;5012781;28;1257;-69
2021/11/27 10:15:06;;;;;;;;;;;22.60;57.00;;;;;;5012605;28;1323;-68
2021/11/27 10:17:31;;;;;;;;;;;22.60;57.60;;;;;;5012409;28;1252;-69
2021/11/27 10:19:58;;;;;;;;;;;22.50;57.00;;;;;;5013506;28;1262;-68
2021/11/27 10:22:26;;;;;;;;;;;22.50;57.10;;;;;;5023329;28;815;-69
2021/11/27 10:24:52;;;;;;;;;;;22.50;57.10;;;;;;5012720;28;1270;-69
2021/11/27 10:27:22;;;;;;;;;;;22.50;57.20;;;;;;4986427;28;1961;-69
2021/11/27 10:29:57;;;;;;;;;;;22.50;57.30;;;;;;4975578;28;1285;-70
2021/11/27 10:32:25;;;;;;;;;;;22.40;57.30;;;;;;4992391;28;1150;-69
2021/11/27 10:34:52;;;;;;;;;;;22.40;57.30;;;;;;4992895;28;1475;-69
2021/11/27 10:37:25;;;;;;;;;;;22.40;57.40;;;;;;4992971;28;1259;-71
2021/11/27 10:40:08;;;;;;;;;;;22.30;57.40;;;;;;4975342;28;1353;-71
2021/11/27 10:42:34;;;;;;;;;;;22.40;57.60;;;;;;5008100;28;1242;-70
2021/11/27 10:45:13;;;;;;;;;;;22.30;57.50;;;;;;4994954;28;1309;-70
2021/11/27 10:47:40;;;;;;;;;;;22.30;57.60;;;;;;5012161;28;1907;-69
2021/11/27 10:50:06;;;;;;;;;;;22.30;57.70;;;;;;5012690;28;1268;-70
2021/11/27 10:52:36;;;;;;;;;;;22.30;57.70;;;;;;5011933;28;1244;-70
2021/11/27 10:55:02;;;;;;;;;;;22.30;57.70;;;;;;4995930;28;1340;-70
2021/11/27 10:57:29;;;;;;;;;;;22.30;57.80;;;;;;4994253;28;1316;-70
2021/11/27 10:59:54;;;;;;;;;;;22.30;57.80;;;;;;4995143;28;1291;-70
2021/11/27 11:02:22;;;;;;;;;;;22.30;57.80;;;;;;5011767;28;1297;-69
2021/11/27 11:05:05;;;;;;;;;;;22.30;57.80;;;;;;5012528;28;1278;-69
2021/11/27 11:07:30;;;;;;;;;;;22.30;57.80;;;;;;4996228;28;1899;-70
2021/11/27 11:10:06;;;;;;;;;;;22.40;57.80;;;;;;5016297;28;1271;-69
2021/11/27 11:12:39;;;;;;;;;;;22.40;57.70;;;;;;5015365;28;1331;-70
2021/11/27 11:15:20;;;;;;;;;;;22.40;57.70;;;;;;4998740;28;1316;-68
2021/11/27 11:17:46;;;;;;;;;;;22.40;57.60;;;;;;5015663;28;1431;-69
2021/11/27 11:20:11;;;;;;;;;;;22.50;57.60;;;;;;5005112;28;1355;-69
2021/11/27 11:22:37;;;;;;;;;;;22.50;57.50;;;;;;5006817;28;1315;-69
2021/11/27 11:25:06;;;;;;;;;;;22.50;57.40;;;;;;4998711;28;1116;-69
2021/11/27 11:27:32;;;;;;;;;;;22.60;57.40;;;;;;4996795;28;1898;-69
2021/11/27 11:30:01;;;;;;;;;;;22.60;57.40;;;;;;4996310;28;1256;-69
2021/11/27 11:32:27;;;;;;;;;;;22.60;57.30;;;;;;4978186;28;1130;-69
2021/11/27 11:34:53;;;;;;;;;;;22.60;57.20;;;;;;4978672;28;1301;-67
2021/11/27 11:37:18;;;;;;;;;;;22.60;57.10;;;;;;4996047;28;1459;-68
2021/11/27 11:39:45;;;;;;;;;;;22.60;57.10;;;;;;4978593;28;1327;-69
2021/11/27 11:42:10;;;;;;;;;;;22.60;57.10;;;;;;4989349;28;1281;-70
2021/11/27 11:44:36;;;;;;;;;;;22.60;57.00;;;;;;5015558;28;1298;-69
2021/11/27 11:47:02;;;;;;;;;;;22.60;57.00;;;;;;4997480;28;1982;-70
2021/11/27 11:49:28;;;;;;;;;;;22.60;57.00;;;;;;4981386;28;1302;-69
2021/11/27 11:51:53;;;;;;;;;;;22.60;57.00;;;;;;5014695;28;1299;-70
2021/11/27 11:54:21;;;;;;;;;;;22.60;57.00;;;;;;5015570;28;1328;-70
2021/11/27 11:56:46;;;;;;;;;;;22.60;57.10;;;;;;4998224;28;1136;-70
2021/11/27 11:59:28;;;;;;;;;;;22.60;57.10;;;;;;5015451;28;1298;-70
2021/11/27 12:02:09;;;;;;;;;;;22.60;57.10;;;;;;4987040;28;1271;-70
2021/11/27 12:04:34;;;;;;;;;;;22.60;57.10;;;;;;5015691;28;1331;-70
2021/11/27 12:07:09;;;;;;;;;;;22.60;57.20;;;;;;5015295;28;1953;-69
2021/11/27 12:09:42;;;;;;;;;;;22.50;57.20;;;;;;5016409;28;1331;-69
2021/11/27 12:12:16;;;;;;;;;;;22.60;57.30;;;;;;4990259;28;1421;-70
2021/11/27 12:14:43;;;;;;;;;;;22.50;57.30;;;;;;4981016;28;2098;-70
2021/11/27 12:17:16;;;;;;;;;;;22.50;57.40;;;;;;5013794;28;970;-69
2021/11/27 12:19:45;;;;;;;;;;;22.50;57.40;;;;;;5009856;28;1304;-73
2021/11/27 12:22:22;;;;;;;;;;;22.40;57.40;;;;;;5018444;28;1486;-71
2021/11/27 12:25:06;;;;;;;;;;;22.40;57.50;;;;;;4993910;28;1319;-70
2021/11/27 12:27:32;;;;;;;;;;;22.40;57.60;;;;;;4996729;28;1952;-70
2021/11/27 12:30:01;;;;;;;;;;;22.40;57.60;;;;;;4994359;28;1430;-70
2021/11/27 12:32:36;;;;;;;;;;;22.40;58.00;;;;;;4976228;28;1654;-70
2021/11/27 12:35:02;;;;;;;;;;;22.40;57.70;;;;;;4994430;28;1321;-69
2021/11/27 12:37:28;;;;;;;;;;;22.40;57.70;;;;;;4994963;28;1293;-68
2021/11/27 12:39:54;;;;;;;;;;;22.30;57.70;;;;;;4993134;28;1314;-69
2021/11/27 12:42:22;;;;;;;;;;;22.40;57.80;;;;;;4988494;28;1317;-70
2021/11/27 12:44:51;;;;;;;;;;;22.30;57.70;;;;;;5013915;28;1048;-69
2021/11/27 12:47:27;;;;;;;;;;;22.40;57.80;;;;;;5014178;28;1914;-70
2021/11/27 12:49:56;;;;;;;;;;;22.40;57.80;;;;;;5014095;28;1325;-71
2021/11/27 12:52:27;;;;;;;;;;;22.40;57.70;;;;;;4997189;28;1104;-70
2021/11/27 12:54:52;;;;;;;;;;;22.40;57.70;;;;;;5015804;28;1111;-69
2021/11/27 12:57:19;;;;;;;;;;;22.40;57.60;;;;;;4994806;28;1256;-71
2021/11/27 12:59:44;;;;;;;;;;;22.50;57.50;;;;;;4977374;28;1379;-70
2021/11/27 13:02:11;;;;;;;;;;;22.50;57.50;;;;;;4976199;28;1360;-69
2021/11/27 13:04:36;;;;;;;;;;;22.50;57.40;;;;;;4976998;28;1405;-69
2021/11/27 13:07:02;;;;;;;;;;;22.60;57.40;;;;;;4994455;28;1902;-69
2021/11/27 13:09:27;;;;;;;;;;;22.60;57.40;;;;;;4977128;28;1273;-69
2021/11/27 13:11:57;;;;;;;;;;;22.60;57.30;;;;;;4993672;28;1318;-69
2021/11/27 13:14:23;;;;;;;;;;;22.60;57.30;;;;;;4993414;28;1270;-70
2021/11/27 13:16:49;;;;;;;;;;;22.60;57.30;;;;;;4996965;28;1340;-69
2021/11/27 13:19:27;;;;;;;;;;;22.60;57.30;;;;;;5004672;28;1327;-70
2021/11/27 13:21:53;;;;;;;;;;;22.60;57.30;;;;;;5017359;28;1394;-70
2021/11/27 13:24:18;;;;;;;;;;;22.60;57.30;;;;;;4994007;28;1276;-71
2021/11/27 13:26:44;;;;;;;;;;;22.60;57.30;;;;;;4995610;28;1894;-69
2021/11/27 13:29:09;;;;;;;;;;;22.60;57.30;;;;;;4993461;28;1069;-70
2021/11/27 13:31:36;;;;;;;;;;;22.50;57.30;;;;;;4975407;28;1332;-70
2021/11/27 13:34:01;;;;;;;;;;;22.50;57.40;;;;;;4993394;28;1280;-70
2021/11/27 13:36:31;;;;;;;;;;;22.50;57.40;;;;;;4994020;28;1112;-70
2021/11/27 13:39:09;;;;;;;;;;;22.50;57.40;;;;;;4976790;28;1078;-71
2021/11/27 13:41:35;;;;;;;;;;;22.50;57.50;;;;;;4982940;28;1377;-70
2021/11/27 13:44:00;;;;;;;;;;;22.50;57.50;;;;;;5013241;28;1335;-70
2021/11/27 13:46:26;;;;;;;;;;;22.50;57.50;;;;;;5013423;28;1946;-70
2021/11/27 13:48:51;;;;;;;;;;;22.40;57.60;;;;;;4995868;28;1356;-70
2021/11/27 13:51:20;;;;;;;;;;;22.40;57.60;;;;;;5012673;28;1486;-70
2021/11/27 13:53:46;;;;;;;;;;;22.40;57.70;;;;;;5013268;28;1250;-71
2021/11/27 13:56:11;;;;;;;;;;;22.40;57.70;;;;;;5012652;28;1436;-72
2021/11/27 13:58:37;;;;;;;;;;;22.40;57.70;;;;;;5013177;28;1290;-70
2021/11/27 14:01:02;;;;;;;;;;;22.40;57.80;;;;;;5008326;28;1798;-70
2021/11/27 14:03:31;;;;;;;;;;;22.30;57.80;;;;;;5007739;28;1261;-71
2021/11/27 14:06:06;;;;;;;;;;;22.30;57.80;;;;;;5008689;28;1906;-70
2021/11/27 14:08:31;;;;;;;;;;;22.30;57.80;;;;;;4982814;28;1523;-69
2021/11/27 14:10:58;;;;;;;;;;;22.30;57.90;;;;;;4993729;28;1439;-72
2021/11/27 14:13:23;;;;;;;;;;;22.30;57.90;;;;;;4998264;28;1253;-71
2021/11/27 14:15:49;;;;;;;;;;;22.30;57.90;;;;;;4993629;28;1259;-71
2021/11/27 14:18:15;;;;;;;;;;;22.30;58.00;;;;;;4993139;28;1062;-72
2021/11/27 14:20:41;;;;;;;;;;;22.20;57.90;;;;;;5016069;28;1390;-71
2021/11/27 14:23:11;;;;;;;;;;;22.20;58.00;;;;;;4985817;28;1245;-72
2021/11/27 14:25:37;;;;;;;;;;;22.20;58.00;;;;;;5012566;28;1338;-71
2021/11/27 14:28:09;;;;;;;;;;;22.20;58.10;;;;;;4979919;28;1976;-71